Archiv-/Tagesdaten

--Timestamp---	Temp	Chill	HIndex	Humid	Dewpt	Wind	HiWind	WindDir	Rain	Barom	Solar	ET	UV
--------------	----	-----	------	-----	-----	----	------	-------	----	-----	-----	--	--
20071009 00:05	6.6	6.6	6.6	90	5.1	0	0	337	0.00	1023.979	0	0.000	0
20071009 00:10	6.5	6.5	6.5	90	5.0	0	0	337	0.00	1024.013	0	0.000	0
20071009 00:15	6.5	6.5	6.5	90	5.0	0	2	180	0.00	1024.013	0	0.000	0
20071009 00:20	6.4	6.4	6.4	90	4.9	0	2	180	0.00	1024.013	0	0.000	0
20071009 00:25	6.4	6.4	6.4	90	4.9	0	2	180	0.00	1023.945	0	0.000	0
20071009 00:30	6.4	6.4	6.4	90	4.9	0	2	180	0.00	1024.013	0	0.000	0
20071009 00:35	6.4	6.4	6.4	90	4.9	0	3	180	0.00	1024.013	0	0.000	0
20071009 00:40	6.4	6.4	6.4	90	4.9	0	2	180	0.00	1024.013	0	0.000	0
20071009 00:45	6.4	6.4	6.4	90	4.9	0	2	180	0.00	1023.979	0	0.000	0
20071009 00:50	6.3	6.3	6.3	90	4.8	0	2	180	0.00	1023.979	0	0.000	0
20071009 00:55	6.3	6.3	6.3	90	4.8	0	3	180	0.00	1023.979	0	0.000	0
20071009 01:00	6.3	6.3	6.3	91	4.9	0	2	180	0.00	1023.945	0	0.000	0
20071009 01:05	6.2	6.2	6.2	91	4.9	0	2	180	0.00	1023.810	0	0.000	0
20071009 01:10	6.2	6.2	6.2	90	4.6	0	2	180	0.00	1023.844	0	0.000	0
20071009 01:15	6.1	6.1	6.1	90	4.6	0	3	180	0.00	1023.878	0	0.000	0
20071009 01:20	6.1	6.1	6.1	91	4.7	0	2	180	0.00	1023.945	0	0.000	0
20071009 01:25	6.1	6.1	6.1	91	4.7	0	0	180	0.00	1023.945	0	0.000	0
20071009 01:30	5.9	5.9	5.9	91	4.6	0	2	180	0.00	1024.013	0	0.000	0
20071009 01:35	5.9	5.9	5.9	91	4.6	0	2	180	0.00	1024.047	0	0.000	0
20071009 01:40	5.9	5.9	5.9	91	4.5	0	0	180	0.00	1024.013	0	0.000	0
20071009 01:45	5.8	5.8	5.8	91	4.4	0	0	180	0.00	1024.081	0	0.000	0
20071009 01:50	5.8	5.8	5.8	91	4.4	0	2	180	0.00	1024.047	0	0.000	0
20071009 01:55	5.7	5.7	5.7	91	4.4	0	2	180	0.00	1024.013	0	0.000	0
20071009 02:00	5.7	5.7	5.7	91	4.4	0	2	180	0.00	1024.013	0	0.000	0
20071009 02:05	5.7	5.7	5.7	91	4.3	0	2	180	0.00	1023.979	0	0.000	0
20071009 02:10	5.6	5.6	5.6	91	4.3	0	2	180	0.00	1023.979	0	0.000	0
20071009 02:15	5.6	5.6	5.6	91	4.2	0	2	180	0.00	1023.911	0	0.000	0
20071009 02:20	5.6	5.6	5.6	91	4.2	0	3	180	0.00	1023.979	0	0.000	0
20071009 02:25	5.6	5.6	5.6	91	4.2	0	2	180	0.00	1023.979	0	0.000	0
20071009 02:30	5.5	5.5	5.5	91	4.1	0	2	180	0.00	1024.013	0	0.000	0
20071009 02:35	5.4	5.4	5.4	91	4.1	0	2	180	0.00	1024.013	0	0.000	0
20071009 02:40	5.3	5.3	5.3	91	4.0	0	2	180	0.00	1024.013	0	0.000	0
20071009 02:45	5.2	5.2	5.2	91	3.9	0	0	180	0.00	1024.047	0	0.000	0
20071009 02:50	5.1	5.1	5.1	91	3.8	0	0	180	0.00	1024.250	0	0.000	0
20071009 02:55	5.1	5.1	5.1	91	3.7	0	0	180	0.00	1024.250	0	0.000	0
20071009 03:00	5.1	5.1	5.1	92	3.9	0	2	180	0.00	1024.148	0	0.000	0
20071009 03:05	5.0	5.0	5.0	92	3.8	0	3	180	0.00	1024.216	0	0.000	0
20071009 03:10	5.0	5.0	5.0	92	3.8	0	5	180	0.00	1024.216	0	0.000	0
20071009 03:15	5.0	5.0	5.0	97	4.6	2	5	180	0.00	1024.115	0	0.000	0
20071009 03:20	4.9	4.9	4.9	92	3.8	2	5	180	0.00	1024.047	0	0.000	0
20071009 03:25	4.9	4.9	4.9	92	3.8	0	5	180	0.00	1023.979	0	0.000	0
20071009 03:30	4.9	4.9	4.9	92	3.8	0	3	180	0.00	1023.945	0	0.000	0
20071009 03:35	4.9	4.9	4.9	92	3.7	0	2	180	0.00	1024.013	0	0.000	0
20071009 03:40	4.8	4.8	4.8	92	3.6	2	5	180	0.00	1023.979	0	0.000	0
20071009 03:45	4.8	4.8	4.8	92	3.6	0	2	180	0.00	1024.013	0	0.000	0
20071009 03:50	4.7	4.7	4.7	92	3.5	0	2	180	0.00	1024.047	0	0.000	0
20071009 03:55	4.7	4.7	4.7	92	3.5	0	2	180	0.00	1024.013	0	0.000	0
20071009 04:00	4.6	4.6	4.6	92	3.4	0	0	180	0.00	1024.047	0	0.000	0
20071009 04:05	4.5	4.5	4.5	91	3.2	0	0	180	0.00	1024.182	0	0.000	0
20071009 04:10	4.4	4.4	4.4	91	3.1	0	0	180	0.00	1024.216	0	0.000	0
20071009 04:15	4.3	4.3	4.3	91	3.0	0	2	180	0.00	1024.216	0	0.000	0
20071009 04:20	4.3	4.3	4.3	92	3.1	0	2	180	0.00	1024.250	0	0.000	0
20071009 04:25	4.4	4.4	4.4	92	3.2	0	2	180	0.00	1024.250	0	0.000	0
20071009 04:30	4.4	4.4	4.4	92	3.2	0	0	180	0.00	1024.182	0	0.000	0
20071009 04:35	4.3	4.3	4.3	92	3.1	0	2	180	0.00	1024.216	0	0.000	0
20071009 04:40	4.3	4.3	4.3	92	3.1	0	2	180	0.00	1024.250	0	0.000	0
20071009 04:45	4.3	4.3	4.3	93	3.3	0	2	180	0.00	1024.250	0	0.000	0
20071009 04:50	4.3	4.3	4.3	92	3.1	0	3	180	0.00	1024.250	0	0.000	0
20071009 04:55	4.3	4.3	4.3	92	3.1	0	2	180	0.00	1024.182	0	0.000	0
20071009 05:00	4.3	4.3	4.3	92	3.1	0	3	180	0.00	1024.250	0	0.000	0
20071009 05:05	4.3	4.3	4.3	92	3.1	2	5	180	0.00	1024.250	0	0.000	0
20071009 05:10	4.3	4.3	4.3	92	3.1	0	3	180	0.00	1024.284	0	0.000	0
20071009 05:15	4.3	4.3	4.3	92	3.1	0	2	180	0.00	1024.284	0	0.000	0
20071009 05:20	4.2	4.2	4.2	92	3.0	2	5	180	0.00	1024.216	0	0.000	0
20071009 05:25	4.2	4.2	4.2	92	3.0	2	5	180	0.00	1024.115	0	0.000	0
20071009 05:30	4.3	4.3	4.3	92	3.1	0	3	180	0.00	1024.148	0	0.000	0
20071009 05:35	4.3	4.3	4.3	92	3.1	0	3	180	0.00	1024.148	0	0.000	0
20071009 05:40	4.3	4.3	4.3	92	3.1	0	2	180	0.00	1024.081	0	0.000	0
20071009 05:45	4.3	4.3	4.3	92	3.1	0	2	180	0.00	1024.081	0	0.000	0
20071009 05:50	4.2	4.2	4.2	92	3.0	0	2	180	0.00	1024.081	0	0.000	0
20071009 05:55	4.2	4.2	4.2	92	3.0	0	2	180	0.00	1024.148	0	0.000	0
20071009 06:00	4.2	4.2	4.2	92	3.0	0	3	180	0.00	1024.115	0	0.000	0
20071009 06:05	4.2	4.2	4.2	92	3.0	0	2	180	0.00	1024.419	0	0.000	0
20071009 06:10	4.2	4.2	4.2	92	3.0	0	3	180	0.00	1024.419	0	0.000	0
20071009 06:15	4.2	4.2	4.2	92	3.0	0	3	180	0.00	1024.385	0	0.000	0
20071009 06:20	4.2	4.2	4.2	92	3.0	0	2	180	0.00	1024.419	0	0.000	0
20071009 06:25	4.2	4.2	4.2	92	3.0	0	3	180	0.00	1024.453	0	0.000	0
20071009 06:30	4.2	4.2	4.2	92	3.0	0	3	180	0.00	1024.453	0	0.000	0
20071009 06:35	4.1	4.1	4.1	92	2.9	0	2	180	0.00	1024.453	0	0.000	0
20071009 06:40	4.1	4.1	4.1	92	2.9	0	3	180	0.00	1024.453	0	0.000	0
20071009 06:45	4.1	4.1	4.1	92	2.9	0	5	180	0.00	1024.487	0	0.000	0
20071009 06:50	4.1	4.1	4.1	92	2.9	0	2	180	0.00	1024.487	0	0.000	0
20071009 06:55	4.1	4.1	4.1	92	2.9	0	3	180	0.00	1024.555	0	0.000	0
20071009 07:00	4.1	4.1	4.1	92	2.9	0	2	180	0.00	1024.589	0	0.000	0
20071009 07:05	4.1	4.1	4.1	92	2.9	0	5	180	0.00	1024.859	0	0.000	0
20071009 07:10	4.1	4.1	4.1	92	2.9	0	3	180	0.00	1024.826	0	0.000	0
20071009 07:15	4.1	4.1	4.1	92	2.9	0	2	180	0.00	1024.893	0	0.000	0
20071009 07:20	4.1	4.1	4.1	92	2.9	0	2	180	0.00	1024.893	2	0.000	0
20071009 07:25	4.2	4.2	4.2	92	3.0	0	3	180	0.00	1024.758	5	0.000	0
20071009 07:30	4.2	4.2	4.2	92	3.0	0	2	180	0.00	1024.792	6	0.000	0
20071009 07:35	4.2	4.2	4.2	92	3.0	0	2	180	0.00	1024.826	10	0.000	0
20071009 07:40	4.2	4.2	4.2	92	3.0	0	3	180	0.00	1024.826	14	0.000	0
20071009 07:45	4.2	4.2	4.2	92	3.0	0	3	180	0.00	1024.927	18	0.000	0
20071009 07:50	4.2	4.2	4.2	92	3.0	0	3	180	0.00	1024.995	22	0.000	0
20071009 07:55	4.2	4.2	4.2	92	3.0	0	5	180	0.00	1025.029	25	0.000	0
20071009 08:00	4.3	4.3	4.3	92	3.1	0	5	180	0.00	1025.063	28	0.000	0
20071009 08:05	4.3	4.3	4.3	92	3.1	0	2	180	0.00	1025.367	24	0.000	0
20071009 08:10	4.4	4.4	4.4	92	3.2	0	3	180	0.00	1025.367	26	0.000	0
20071009 08:15	4.4	4.4	4.4	92	3.3	0	2	180	0.00	1025.367	32	0.000	0
20071009 08:20	4.5	4.5	4.5	92	3.3	0	2	180	0.00	1025.401	33	0.000	0
20071009 08:25	4.6	4.6	4.6	92	3.4	0	5	180	0.00	1025.401	38	0.000	0
20071009 08:30	4.7	4.7	4.7	92	3.5	2	3	180	0.00	1025.401	41	0.000	0
20071009 08:35	4.8	4.8	4.8	92	3.6	2	6	180	0.00	1025.367	40	0.000	0
20071009 08:40	4.9	4.9	4.9	92	3.7	2	5	180	0.00	1025.334	39	0.000	0
20071009 08:45	5.0	5.0	5.0	92	3.8	0	3	180	0.00	1025.401	46	0.000	0
20071009 08:50	5.1	5.1	5.1	92	3.9	2	6	180	0.00	1025.503	50	0.000	0
20071009 08:55	5.2	5.2	5.2	92	4.0	3	6	180	0.00	1025.503	49	0.000	0
20071009 09:00	5.3	5.3	5.3	92	4.1	3	8	180	0.00	1025.503	56	0.020	0
20071009 09:05	5.4	5.4	5.4	92	4.2	3	6	180	0.00	1025.435	59	0.000	0
20071009 09:10	5.6	5.6	5.6	92	4.4	0	5	180	0.00	1025.469	63	0.000	0
20071009 09:15	5.8	5.8	5.8	92	4.6	2	6	180	0.00	1025.604	67	0.000	0
20071009 09:20	5.9	5.9	5.9	92	4.7	2	6	180	0.00	1025.638	67	0.000	0
20071009 09:25	6.2	6.2	6.2	92	5.0	2	6	180	0.00	1025.706	64	0.000	0
20071009 09:30	6.4	6.4	6.4	92	5.2	0	2	180	0.00	1025.706	63	0.000	0
20071009 09:35	6.6	6.6	6.6	92	5.3	0	5	180	0.00	1025.604	72	0.000	1
20071009 09:40	6.8	6.8	6.8	92	5.6	0	0	180	0.00	1025.571	77	0.000	1
20071009 09:45	7.1	7.1	7.1	91	5.7	0	2	180	0.00	1025.537	80	0.000	1
20071009 09:50	7.2	7.2	7.2	91	5.9	0	2	180	0.00	1025.503	83	0.000	1
20071009 09:55	7.4	7.4	7.4	91	6.1	0	3	180	0.00	1025.469	81	0.000	1
20071009 10:00	7.7	7.7	7.7	91	6.3	0	3	180	0.00	1025.334	82	0.020	1
20071009 10:05	8.0	8.0	8.0	90	6.5	0	3	180	0.00	1025.503	82	0.000	1
20071009 10:10	8.2	8.2	8.2	90	6.6	0	3	180	0.00	1025.401	85	0.000	1
20071009 10:15	8.4	8.4	8.4	89	6.7	0	3	180	0.00	1025.469	87	0.000	1
20071009 10:20	8.6	8.6	8.6	90	7.0	0	2	180	0.00	1025.503	92	0.000	1
20071009 10:25	8.8	8.8	8.8	89	7.1	0	3	180	0.00	1025.503	96	0.000	1
20071009 10:30	9.1	9.1	9.1	88	7.2	0	3	180	0.00	1025.503	104	0.000	1
20071009 10:35	9.3	9.3	9.3	87	7.2	0	3	180	0.00	1025.401	110	0.000	1
20071009 10:40	9.5	9.5	9.5	87	7.4	0	3	180	0.00	1025.367	116	0.000	1
20071009 10:45	9.8	9.8	9.8	87	7.7	0	5	180	0.00	1025.334	120	0.000	1
20071009 10:50	9.9	9.9	9.9	86	7.7	2	5	225	0.00	1025.300	115	0.000	1
20071009 10:55	10.1	10.1	10.1	86	7.9	2	5	225	0.00	1025.266	113	0.000	1
20071009 11:00	10.3	10.3	10.3	85	7.9	0	6	270	0.00	1025.334	128	0.040	1
20071009 11:05	10.3	10.3	10.3	85	7.9	0	3	315	0.00	1025.334	138	0.000	1
20071009 11:10	10.4	10.4	10.4	85	8.0	0	3	315	0.00	1025.334	150	0.000	2
20071009 11:15	10.7	10.7	10.7	85	8.2	2	6	292	0.00	1025.232	155	0.000	2
20071009 11:20	10.8	10.8	10.8	84	8.2	2	5	0	0.00	1025.266	159	0.000	2
20071009 11:25	10.8	10.8	10.8	84	8.2	2	6	292	0.00	1025.164	281	0.000	2
20071009 11:30	11.0	11.0	11.0	84	8.4	0	2	315	0.00	1025.130	373	0.000	2
20071009 11:35	11.3	11.3	11.3	81	8.1	0	2	315	0.00	1025.130	379	0.000	2
20071009 11:40	11.3	11.3	11.3	80	8.0	2	5	22	0.00	1025.097	372	0.000	2
20071009 11:45	11.4	11.4	11.4	80	8.1	0	2	22	0.00	1025.097	381	0.000	2
20071009 11:50	11.7	11.7	11.7	81	8.5	0	2	45	0.00	1024.995	399	0.000	2
20071009 11:55	12.0	12.0	12.0	76	7.9	0	3	292	0.00	1024.893	402	0.000	2
20071009 12:00	12.2	12.2	12.2	76	8.1	0	3	292	0.00	1024.961	383	0.120	2
20071009 12:05	12.4	12.4	12.4	74	7.9	0	5	337	0.00	1025.097	389	0.000	2
20071009 12:10	12.6	12.6	12.6	72	7.6	2	5	22	0.00	1025.029	390	0.000	2
20071009 12:15	12.4	12.4	12.4	71	7.3	2	3	22	0.00	1025.164	418	0.000	2
20071009 12:20	12.4	12.4	12.4	72	7.5	0	2	22	0.00	1025.130	442	0.000	3
20071009 12:25	12.7	12.7	12.7	73	8.0	0	2	22	0.00	1025.029	415	0.000	3
20071009 12:30	12.9	12.9	12.9	72	8.0	2	5	22	0.00	1024.961	425	0.000	3
20071009 12:35	13.2	13.2	13.2	68	7.4	2	5	292	0.00	1024.961	448	0.000	3
20071009 12:40	13.3	13.3	13.3	68	7.5	0	3	292	0.00	1024.893	472	0.000	3
20071009 12:45	13.7	13.7	13.7	68	7.9	0	3	292	0.00	1024.792	469	0.000	3
20071009 12:50	13.9	13.9	13.9	69	8.3	0	5	292	0.00	1024.758	472	0.000	3
20071009 12:55	13.7	13.7	13.7	68	7.9	3	6	22	0.00	1024.656	480	0.000	3
20071009 13:00	13.8	13.8	13.8	69	8.2	2	6	292	0.00	1024.589	443	0.180	3
20071009 13:05	14.0	14.0	14.0	68	8.2	2	6	292	0.00	1024.724	413	0.000	2
20071009 13:10	14.0	14.0	14.0	68	8.2	2	3	0	0.00	1024.623	384	0.000	2
20071009 13:15	13.9	13.9	13.9	68	8.1	0	3	67	0.00	1024.589	461	0.000	2
20071009 13:20	13.9	13.9	13.9	66	7.6	2	3	90	0.00	1024.589	497	0.000	2
20071009 13:25	13.9	13.9	13.9	68	8.1	3	6	22	0.00	1024.521	480	0.000	2
20071009 13:30	13.7	13.7	13.7	69	8.1	3	10	45	0.00	1024.453	430	0.000	2
20071009 13:35	13.6	13.6	13.6	69	8.0	5	10	22	0.00	1024.385	234	0.000	2
20071009 13:40	13.4	13.4	13.4	71	8.3	2	6	22	0.00	1024.352	170	0.000	2
20071009 13:45	13.3	13.3	13.3	68	7.5	3	6	45	0.00	1024.284	184	0.000	2
20071009 13:50	13.2	13.2	13.2	68	7.4	2	6	22	0.00	1024.182	206	0.000	2
20071009 13:55	13.3	13.3	13.3	67	7.3	0	3	22	0.00	1024.148	398	0.000	2
20071009 14:00	13.7	13.7	13.7	66	7.5	0	5	22	0.00	1024.081	448	0.160	2
20071009 14:05	13.9	13.9	13.9	67	7.9	2	6	22	0.00	1024.047	391	0.000	2
20071009 14:10	14.1	14.1	14.1	67	8.1	2	8	315	0.00	1024.047	381	0.000	2
20071009 14:15	14.3	14.3	14.3	63	7.3	2	6	292	0.00	1024.081	316	0.000	2
20071009 14:20	14.1	14.1	14.1	64	7.4	2	6	22	0.00	1024.013	342	0.000	2
20071009 14:25	14.2	14.2	14.2	64	7.5	0	3	0	0.00	1024.081	334	0.000	2
20071009 14:30	14.3	14.3	14.3	66	8.1	2	8	22	0.00	1024.047	339	0.000	2
20071009 14:35	14.1	14.1	14.1	67	8.0	6	11	45	0.00	1024.047	395	0.000	2
20071009 14:40	14.1	14.1	14.1	67	8.0	3	6	45	0.00	1023.979	360	0.000	2
20071009 14:45	14.1	14.1	14.1	66	7.8	3	8	45	0.00	1023.979	308	0.000	2
20071009 14:50	13.9	13.9	13.9	66	7.6	5	8	22	0.00	1023.945	299	0.000	2
20071009 14:55	13.9	13.9	13.9	65	7.4	5	8	22	0.00	1023.945	351	0.000	2
20071009 15:00	14.1	14.1	14.1	67	8.0	0	5	22	0.00	1023.945	375	0.160	2
20071009 15:05	14.3	14.3	14.3	63	7.3	2	6	22	0.00	1023.945	361	0.000	2
20071009 15:10	14.3	14.3	14.3	63	7.3	2	5	22	0.00	1023.945	346	0.000	2
20071009 15:15	14.4	14.4	14.4	63	7.5	0	2	45	0.00	1023.911	342	0.000	2
20071009 15:20	14.7	14.7	14.7	62	7.5	2	6	45	0.00	1023.945	356	0.000	2
20071009 15:25	14.5	14.5	14.5	60	6.8	3	8	45	0.00	1023.945	196	0.000	1
20071009 15:30	14.4	14.4	14.4	60	6.8	0	2	45	0.00	1023.945	185	0.000	1
20071009 15:35	14.4	14.4	14.4	62	7.3	2	5	45	0.00	1023.945	186	0.000	1
20071009 15:40	14.5	14.5	14.5	63	7.5	2	5	90	0.00	1023.878	169	0.000	1
20071009 15:45	14.5	14.5	14.5	62	7.3	0	3	112	0.00	1023.742	166	0.000	1
20071009 15:50	14.4	14.4	14.4	62	7.3	2	6	45	0.00	1023.742	149	0.000	1
20071009 15:55	14.4	14.4	14.4	62	7.2	5	8	22	0.00	1023.742	143	0.000	1
20071009 16:00	14.3	14.3	14.3	62	7.1	3	8	45	0.00	1023.708	137	0.100	1
20071009 16:05	14.2	14.2	14.2	61	6.8	5	8	45	0.00	1023.810	142	0.000	1
20071009 16:10	14.1	14.1	14.1	61	6.7	3	6	45	0.00	1023.742	132	0.000	1
20071009 16:15	14.1	14.1	14.1	62	6.9	3	6	22	0.00	1023.810	122	0.000	1
20071009 16:20	14.1	14.1	14.1	63	7.2	2	3	67	0.00	1023.742	122	0.000	1
20071009 16:25	14.1	14.1	14.1	63	7.2	2	5	45	0.00	1023.708	120	0.000	1
20071009 16:30	14.1	14.1	14.1	63	7.2	3	5	45	0.00	1023.708	114	0.000	1
20071009 16:35	14.1	14.1	14.1	63	7.2	2	5	22	0.00	1023.674	108	0.000	1
20071009 16:40	14.1	14.1	14.1	62	6.9	3	10	0	0.00	1023.640	106	0.000	0
20071009 16:45	14.1	14.1	14.1	63	7.1	3	8	22	0.00	1023.708	110	0.000	0
20071009 16:50	14.0	14.0	14.0	63	7.1	2	5	0	0.00	1023.674	92	0.000	0
20071009 16:55	14.0	14.0	14.0	62	6.8	2	6	22	0.00	1023.674	82	0.000	0
20071009 17:00	13.9	13.9	13.9	63	7.0	3	8	22	0.00	1023.607	90	0.060	0
20071009 17:05	13.8	13.8	13.8	63	6.9	3	6	22	0.00	1023.539	86	0.000	0
20071009 17:10	13.8	13.8	13.8	62	6.6	3	6	22	0.00	1023.607	89	0.000	0
20071009 17:15	13.7	13.7	13.7	63	6.8	2	5	22	0.00	1023.640	89	0.000	0
20071009 17:20	13.7	13.7	13.7	62	6.6	3	5	22	0.00	1023.607	80	0.000	0
20071009 17:25	13.7	13.7	13.7	62	6.5	2	5	22	0.00	1023.607	74	0.000	0
20071009 17:30	13.7	13.7	13.7	62	6.5	2	5	22	0.00	1023.539	63	0.000	0
20071009 17:35	13.6	13.6	13.6	62	6.4	2	5	22	0.00	1023.539	57	0.000	0
20071009 17:40	13.5	13.5	13.5	62	6.4	2	3	22	0.00	1023.640	54	0.000	0
20071009 17:45	13.4	13.4	13.4	64	6.7	2	3	22	0.00	1023.607	50	0.000	0
20071009 17:50	13.3	13.3	13.3	65	6.8	2	5	22	0.00	1023.505	40	0.000	0
20071009 17:55	13.1	13.1	13.1	65	6.7	2	3	22	0.00	1023.505	33	0.000	0
20071009 18:00	13.0	13.0	13.0	67	7.0	0	3	22	0.00	1023.674	30	0.040	0
20071009 18:05	12.8	12.8	12.8	67	6.9	0	2	22	0.00	1023.674	28	0.000	0
20071009 18:10	12.7	12.7	12.7	68	7.0	0	2	22	0.00	1023.607	24	0.000	0
20071009 18:15	12.6	12.6	12.6	69	7.0	0	2	22	0.00	1023.607	19	0.000	0
20071009 18:20	12.4	12.4	12.4	69	6.9	0	0	22	0.00	1023.810	15	0.000	0
20071009 18:25	12.3	12.3	12.3	70	7.0	0	2	22	0.00	1023.810	12	0.000	0
20071009 18:30	12.1	12.1	12.1	71	7.0	0	0	22	0.00	1023.810	9	0.000	0
20071009 18:35	11.9	11.9	11.9	72	7.1	0	2	22	0.00	1023.810	4	0.000	0
20071009 18:40	11.8	11.8	11.8	73	7.1	0	2	22	0.00	1023.810	0	0.000	0
20071009 18:45	11.6	11.6	11.6	73	6.9	0	2	22	0.00	1023.810	0	0.000	0
20071009 18:50	11.4	11.4	11.4	74	7.0	0	2	22	0.00	1023.776	0	0.000	0
20071009 18:55	11.3	11.3	11.3	75	7.1	0	0	22	0.00	1023.945	0	0.000	0
20071009 19:00	11.2	11.2	11.2	75	7.0	0	0	22	0.00	1023.979	0	0.000	0
20071009 19:05	11.1	11.1	11.1	75	6.8	0	0	22	0.00	1023.979	0	0.000	0
20071009 19:10	11.0	11.0	11.0	75	6.7	0	2	22	0.00	1023.979	0	0.000	0
20071009 19:15	10.9	10.9	10.9	76	6.8	0	0	22	0.00	1023.945	0	0.000	0
20071009 19:20	10.7	10.7	10.7	76	6.7	0	0	22	0.00	1024.115	0	0.000	0
20071009 19:25	10.5	10.5	10.5	77	6.6	0	0	22	0.00	1024.148	0	0.000	0
20071009 19:30	10.3	10.3	10.3	77	6.4	0	0	22	0.00	1024.115	0	0.000	0
20071009 19:35	10.1	10.1	10.1	77	6.2	0	0	22	0.00	1024.115	0	0.000	0
20071009 19:40	9.9	9.9	9.9	79	6.4	0	0	22	0.00	1024.115	0	0.000	0
20071009 19:45	9.7	9.7	9.7	79	6.3	0	0	22	0.00	1024.182	0	0.000	0
20071009 19:50	9.6	9.6	9.6	80	6.3	0	0	22	0.00	1024.318	0	0.000	0
20071009 19:55	9.3	9.3	9.3	81	6.2	0	0	22	0.00	1024.250	0	0.000	0
20071009 20:00	9.2	9.2	9.2	82	6.3	0	0	22	0.00	1024.250	0	0.020	0
20071009 20:05	9.0	9.0	9.0	81	5.9	0	0	22	0.00	1024.148	0	0.000	0
20071009 20:10	8.8	8.8	8.8	82	5.9	0	0	22	0.00	1024.216	0	0.000	0
20071009 20:15	8.7	8.7	8.7	83	5.9	0	0	22	0.00	1024.250	0	0.000	0
20071009 20:20	8.6	8.6	8.6	84	6.0	0	0	22	0.00	1024.352	0	0.000	0
20071009 20:25	8.5	8.5	8.5	84	6.0	0	0	22	0.00	1024.419	0	0.000	0
20071009 20:30	8.4	8.4	8.4	85	6.0	0	5	337	0.00	1024.453	0	0.000	0
20071009 20:35	8.3	8.3	8.3	85	6.0	0	0	337	0.00	1024.453	0	0.000	0
20071009 20:40	8.3	8.3	8.3	85	5.9	0	2	337	0.00	1024.419	0	0.000	0
20071009 20:45	8.3	8.3	8.3	85	5.9	0	2	337	0.00	1024.419	0	0.000	0
20071009 20:50	8.3	8.3	8.3	85	5.9	0	0	337	0.00	1024.352	0	0.000	0
20071009 20:55	8.2	8.2	8.2	86	6.0	0	0	337	0.00	1024.352	0	0.000	0
20071009 21:00	8.2	8.2	8.2	86	6.0	0	0	337	0.00	1024.352	0	0.000	0
20071009 21:05	8.1	8.1	8.1	86	5.9	0	0	337	0.00	1024.081	0	0.000	0
20071009 21:10	7.9	7.9	7.9	86	5.7	0	0	337	0.00	1024.013	0	0.000	0
20071009 21:15	7.8	7.8	7.8	87	5.8	0	0	337	0.00	1023.979	0	0.000	0
20071009 21:20	7.7	7.7	7.7	87	5.7	0	0	337	0.00	1024.013	0	0.000	0
20071009 21:25	7.7	7.7	7.7	87	5.6	0	0	337	0.00	1024.013	0	0.000	0
20071009 21:30	7.6	7.6	7.6	87	5.6	0	0	337	0.00	1024.013	0	0.000	0
20071009 21:35	7.6	7.6	7.6	88	5.7	0	0	337	0.00	1024.013	0	0.000	0
20071009 21:40	7.5	7.5	7.5	87	5.5	0	0	337	0.00	1024.047	0	0.000	0
20071009 21:45	7.4	7.4	7.4	88	5.6	0	0	337	0.00	1024.148	0	0.000	0
20071009 21:50	7.3	7.3	7.3	88	5.5	0	0	337	0.00	1024.115	0	0.000	0
20071009 21:55	7.2	7.2	7.2	88	5.4	0	0	337	0.00	1024.115	0	0.000	0
20071009 22:00	7.2	7.2	7.2	89	5.5	0	2	337	0.00	1024.115	0	0.000	0
20071009 22:05	7.2	7.2	7.2	89	5.5	0	0	337	0.00	1023.674	0	0.000	0
20071009 22:10	7.2	7.2	7.2	89	5.5	0	0	337	0.00	1023.640	0	0.000	0
20071009 22:15	7.1	7.1	7.1	88	5.3	0	2	337	0.00	1023.607	0	0.000	0
20071009 22:20	7.0	7.0	7.0	88	5.1	0	0	337	0.00	1023.573	0	0.000	0
20071009 22:25	6.9	6.9	6.9	89	5.3	0	0	337	0.00	1023.640	0	0.000	0
20071009 22:30	6.8	6.8	6.8	90	5.3	0	0	337	0.00	1023.742	0	0.000	0
20071009 22:35	6.8	6.8	6.8	90	5.3	0	0	337	0.00	1023.708	0	0.000	0
20071009 22:40	6.7	6.7	6.7	90	5.1	0	0	337	0.00	1023.607	0	0.000	0
20071009 22:45	6.6	6.6	6.6	90	5.1	0	0	337	0.00	1023.640	0	0.000	0
20071009 22:50	6.6	6.6	6.6	91	5.2	0	3	337	0.00	1023.607	0	0.000	0
20071009 22:55	6.6	6.6	6.6	91	5.2	0	0	337	0.00	1023.607	0	0.000	0
20071009 23:00	6.6	6.6	6.6	91	5.2	0	0	337	0.00	1023.573	0	0.000	0
20071009 23:05	6.6	6.6	6.6	91	5.2	0	2	337	0.00	1023.302	0	0.000	0
20071009 23:10	6.5	6.5	6.5	90	5.0	0	2	337	0.00	1023.336	0	0.000	0
20071009 23:15	6.4	6.4	6.4	90	4.9	0	2	202	0.00	1023.234	0	0.000	0
20071009 23:20	6.4	6.4	6.4	91	5.0	0	0	202	0.00	1023.234	0	0.000	0
20071009 23:25	6.4	6.4	6.4	91	5.1	0	2	202	0.00	1023.166	0	0.000	0
20071009 23:30	6.4	6.4	6.4	91	5.1	0	2	202	0.00	1023.166	0	0.000	0
20071009 23:35	6.4	6.4	6.4	91	5.1	0	2	180	0.00	1023.166	0	0.000	0
20071009 23:40	6.4	6.4	6.4	91	5.1	0	2	180	0.00	1023.099	0	0.000	0
20071009 23:45	6.4	6.4	6.4	91	5.0	0	2	180	0.00	1023.065	0	0.000	0
20071009 23:50	6.3	6.3	6.3	90	4.8	0	2	180	0.00	1023.166	0	0.000	0
20071009 23:55	6.3	6.3	6.3	90	4.8	0	2	180	0.00	1023.065	0	0.000	0
20071009 24:00	6.2	6.2	6.2	90	4.7	0	0	180	0.00	1022.997	0	0.000	0



Please note the license to use and transfer of this data:
http://creativecommons.org/licenses/by-nc-sa/3.0/deed.en

Bitte beachten sie die Lizenz zur Verwertung und Weitergabe der Daten:
http://creativecommons.org/licenses/by-nc-sa/3.0/deed.de

zurück zur Übersicht der Archivdaten (Monats und Tagesdaten)

Cookies helfen bei der Bereitstellung von Inhalten. Durch die Nutzung dieser Seiten erklärst du dich damit einverstanden, dass Cookies auf deinem Rechner gespeichert werden. Weitere Information